KGLW

Glasgow Municipal Airport

Glasgow, Kentucky, USA
METAR KGLW 260250Z AUTO 00000KT 10SM CLR 07/06 A3016 RMK AO2 T00720059
Observed Flight Rules
Feb-26 @ 02:50 UTC (28 minutes ago) Visual Flight Rules
Wind Visibility Clouds
Calm 10 miles
  • Clear skies
Temperatures Readings
Current 7°C / 45°F
Dewpoint 6°C / 43°F
Humidity 93%
Altimeter 30.16" Hg
Pressure 1021 hPa
Elevation 218
METAR KGLW 260250Z AUTO 00000KT 10SM CLR 07/06 A3016 RMK AO2 T00720059
Observed Flight Rules
Feb-26 @ 02:50 UTC
(28 minutes ago)
VFR
Wind Visibility
Calm 10 miles
Clouds
  • Clear skies
Temperature Dewpoint
7°C / 45°F 6°C / 43°F
Humidity Altimeter Pressure
93% 30.16" Hg 1021 hPa